createdAt,value
2019-05-19T00:01:29.249Z,100315.13
2019-05-19T00:04:53.342Z,100313.06
2019-05-19T00:08:17.189Z,100306.07
2019-05-19T00:11:40.651Z,100301.98
2019-05-19T00:15:04.480Z,100298.60
2019-05-19T00:18:28.247Z,100298.41
2019-05-19T00:21:51.634Z,100289.80
2019-05-19T00:25:16.761Z,100284.11
2019-05-19T00:28:40.312Z,100273.52
2019-05-19T00:32:03.612Z,100269.55
2019-05-19T00:35:27.885Z,100264.11
2019-05-19T00:38:51.681Z,100264.01
2019-05-19T00:42:15.212Z,100255.19
2019-05-19T00:45:38.592Z,100258.34
2019-05-19T00:49:02.308Z,100250.81
2019-05-19T00:52:25.510Z,100241.77
2019-05-19T00:55:49.804Z,100245.82
2019-05-19T00:59:13.890Z,100240.90
2019-05-19T01:02:37.280Z,100239.23
2019-05-19T01:06:00.733Z,100233.80
2019-05-19T01:09:24.168Z,100237.87
2019-05-19T01:12:47.805Z,100235.84
2019-05-19T01:16:10.936Z,100232.47
2019-05-19T01:19:34.095Z,100234.21
2019-05-19T01:22:57.615Z,100235.72
2019-05-19T01:26:20.952Z,100231.61
2019-05-19T01:29:44.063Z,100237.16
2019-05-19T01:33:07.227Z,100232.11
2019-05-19T01:36:30.816Z,100232.18
2019-05-19T01:39:54.463Z,100238.27
2019-05-19T01:43:17.795Z,100241.00
2019-05-19T01:46:41.079Z,100238.99
2019-05-19T01:50:17.505Z,100238.41
2019-05-19T01:53:30.934Z,100237.44
2019-05-19T01:56:54.244Z,100236.43
2019-05-19T02:00:18.707Z,100235.20
2019-05-19T02:03:42.088Z,100237.80
2019-05-19T02:07:05.408Z,100242.80
2019-05-19T02:10:28.581Z,100242.66
2019-05-19T02:13:51.747Z,100240.53
2019-05-19T02:17:15.151Z,100238.17
2019-05-19T02:20:38.328Z,100234.35
2019-05-19T02:24:03.549Z,100235.45
2019-05-19T02:27:27.080Z,100226.52
2019-05-19T02:30:50.526Z,100229.44
2019-05-19T02:34:14.235Z,100227.31
2019-05-19T02:37:37.291Z,100227.88
2019-05-19T02:41:02.542Z,100226.67
2019-05-19T02:44:26.768Z,100224.33
2019-05-19T02:47:50.718Z,100223.83
2019-05-19T02:51:16.009Z,100223.98
2019-05-19T02:54:39.563Z,100229.70
2019-05-19T02:58:03.304Z,100223.66
2019-05-19T03:01:26.815Z,100219.53
2019-05-19T03:04:50.479Z,100226.66
2019-05-19T03:08:13.843Z,100218.17
2019-05-19T03:11:37.068Z,100221.73
2019-05-19T03:15:00.290Z,100223.35
2019-05-19T03:18:23.453Z,100222.14
2019-05-19T03:21:46.738Z,100220.63
2019-05-19T03:25:10.238Z,100219.50
2019-05-19T03:28:33.744Z,100220.70
2019-05-19T03:32:17.207Z,100218.48
2019-05-19T03:35:40.826Z,100215.47
2019-05-19T03:39:05.775Z,100205.41
2019-05-19T03:42:29.138Z,100203.39
2019-05-19T03:45:52.508Z,100206.53
2019-05-19T03:49:16.130Z,100211.76
2019-05-19T03:52:39.529Z,100210.17
2019-05-19T03:56:02.769Z,100213.66
2019-05-19T03:59:26.037Z,100214.03
2019-05-19T04:02:49.469Z,100217.39
2019-05-19T04:06:13.218Z,100217.48
2019-05-19T04:09:38.344Z,100213.08
2019-05-19T04:13:01.872Z,100211.43
2019-05-19T04:16:25.268Z,100211.59
2019-05-19T04:19:48.717Z,100208.09
2019-05-19T04:23:12.287Z,100212.30
2019-05-19T04:26:35.587Z,100210.09
2019-05-19T04:29:59.925Z,100220.67
2019-05-19T04:33:23.089Z,100219.41
2019-05-19T04:36:46.854Z,100221.05
2019-05-19T04:40:11.783Z,100220.75
2019-05-19T04:43:35.403Z,100221.09
2019-05-19T04:46:58.872Z,100218.45
2019-05-19T04:50:22.228Z,100222.22
2019-05-19T04:53:45.535Z,100226.42
2019-05-19T04:57:09.159Z,100231.25
2019-05-19T05:00:32.415Z,100227.10
2019-05-19T05:03:57.514Z,100235.22
2019-05-19T05:07:20.961Z,100244.77
2019-05-19T05:10:47.435Z,100239.27
2019-05-19T05:14:10.827Z,100237.72
2019-05-19T05:17:34.366Z,100240.97
2019-05-19T05:20:57.953Z,100237.64
2019-05-19T05:24:21.308Z,100242.56
2019-05-19T05:27:44.525Z,100234.91
2019-05-19T05:31:08.253Z,100232.58
2019-05-19T05:34:32.046Z,100236.81
2019-05-19T05:37:58.684Z,100235.45
2019-05-19T05:41:22.272Z,100235.05
2019-05-19T05:44:45.835Z,100236.33
2019-05-19T05:48:09.362Z,100242.06
2019-05-19T05:51:37.250Z,100238.84
2019-05-19T05:55:00.748Z,100238.78
2019-05-19T05:58:24.057Z,100233.75
2019-05-19T06:01:47.316Z,100241.88
2019-05-19T06:05:11.241Z,100240.11
2019-05-19T06:08:34.760Z,100241.08
2019-05-19T06:11:58.640Z,100243.19
2019-05-19T06:15:21.912Z,100241.75
2019-05-19T06:18:45.547Z,100245.83
2019-05-19T06:22:08.869Z,100236.30
2019-05-19T06:25:33.412Z,100250.95
2019-05-19T06:28:57.563Z,100252.14
2019-05-19T06:32:35.869Z,100248.13
2019-05-19T06:35:59.897Z,100244.73
2019-05-19T06:39:25.347Z,100244.16
2019-05-19T06:42:49.240Z,100244.91
2019-05-19T06:46:12.991Z,100237.93
2019-05-19T06:49:36.392Z,100235.98
2019-05-19T06:53:13.553Z,100240.93
2019-05-19T06:56:25.225Z,100239.52
2019-05-19T06:59:48.464Z,100245.53
2019-05-19T07:03:11.545Z,100242.34
2019-05-19T07:06:34.940Z,100245.36
2019-05-19T07:09:59.054Z,100239.58
2019-05-19T07:13:22.734Z,100250.98
2019-05-19T07:16:45.992Z,100239.23
2019-05-19T07:20:10.873Z,100243.33
2019-05-19T07:23:34.685Z,100238.12
2019-05-19T07:26:58.118Z,100242.47
2019-05-19T07:30:21.417Z,100245.64
2019-05-19T07:33:48.171Z,100237.61
2019-05-19T07:37:12.547Z,100244.97
2019-05-19T07:40:38.159Z,100247.17
2019-05-19T07:44:03.744Z,100249.75
2019-05-19T07:47:31.182Z,100250.76
2019-05-19T07:50:55.243Z,100254.91
2019-05-19T07:54:19.099Z,100260.77
2019-05-19T07:57:43.432Z,100261.92
2019-05-19T08:01:10.943Z,100259.70
2019-05-19T08:04:35.273Z,100253.22
2019-05-19T08:07:59.055Z,100262.07
2019-05-19T08:11:23.034Z,100263.61
2019-05-19T08:14:47.017Z,100251.86
2019-05-19T08:18:10.853Z,100260.18
2019-05-19T08:21:35.847Z,100259.49
2019-05-19T08:24:59.833Z,100257.09
2019-05-19T08:28:25.060Z,100249.59
2019-05-19T08:31:49.358Z,100244.56
2019-05-19T08:35:13.058Z,100247.55
2019-05-19T08:38:36.451Z,100253.94
2019-05-19T08:42:03.038Z,100257.97
2019-05-19T08:45:27.255Z,100257.59
2019-05-19T08:48:51.112Z,100252.84
2019-05-19T08:52:14.474Z,100250.92
2019-05-19T08:55:38.702Z,100253.24
2019-05-19T08:59:02.720Z,100246.25
2019-05-19T09:02:26.358Z,100246.98
2019-05-19T09:05:50.021Z,100246.55
2019-05-19T09:09:13.406Z,100231.25
2019-05-19T09:12:37.076Z,100231.62
2019-05-19T09:16:00.656Z,100230.87
2019-05-19T09:19:24.055Z,100228.22
2019-05-19T09:22:48.141Z,100229.92
2019-05-19T09:26:11.698Z,100232.86
2019-05-19T09:29:35.048Z,100232.97
2019-05-19T09:32:59.703Z,100219.58
2019-05-19T09:36:23.551Z,100226.78
2019-05-19T09:39:46.944Z,100219.64
2019-05-19T09:43:10.463Z,100224.73
2019-05-19T09:46:34.389Z,100223.70
2019-05-19T09:49:57.840Z,100215.26
2019-05-19T09:53:21.991Z,100211.69
2019-05-19T09:56:45.556Z,100212.20
2019-05-19T10:00:09.957Z,100207.34
2019-05-19T10:03:33.379Z,100209.87
2019-05-19T10:06:56.710Z,100206.87
2019-05-19T10:11:14.233Z,100207.47
2019-05-19T10:14:37.467Z,100198.09
2019-05-19T10:18:00.842Z,100199.47
2019-05-19T10:21:24.069Z,100193.73
2019-05-19T10:25:03.995Z,100190.16
2019-05-19T10:28:12.152Z,100193.79
2019-05-19T10:31:35.530Z,100186.64
2019-05-19T10:34:58.726Z,100190.48
2019-05-19T10:38:22.053Z,100180.36
2019-05-19T10:41:45.382Z,100183.50
2019-05-19T10:45:09.230Z,100184.69
2019-05-19T10:48:32.726Z,100183.06
2019-05-19T10:51:56.362Z,100177.30
2019-05-19T10:55:19.459Z,100173.66
2019-05-19T10:58:43.345Z,100174.05
2019-05-19T11:02:08.789Z,100171.81
2019-05-19T11:05:44.975Z,100163.74
2019-05-19T11:09:20.541Z,100161.84
2019-05-19T11:12:56.267Z,100163.36
2019-05-19T11:16:38.831Z,100153.05
2019-05-19T11:20:18.192Z,100151.45
2019-05-19T11:24:00.833Z,100155.80
2019-05-19T11:27:36.486Z,100153.07
2019-05-19T11:31:13.908Z,100146.06
2019-05-19T11:34:56.669Z,100146.60
2019-05-19T11:38:31.994Z,100145.08
2019-05-19T11:42:07.442Z,100144.45
2019-05-19T11:45:49.972Z,100133.80
2019-05-19T11:49:25.923Z,100139.28
2019-05-19T11:53:03.221Z,100141.84
2019-05-19T11:56:38.722Z,100143.06
2019-05-19T12:00:14.429Z,100136.91
2019-05-19T12:03:57.058Z,100135.13
2019-05-19T12:07:32.933Z,100134.74
2019-05-19T12:11:08.425Z,100141.73
2019-05-19T12:14:51.477Z,100130.50
2019-05-19T12:18:27.654Z,100147.25
2019-05-19T12:22:03.792Z,100142.30
2019-05-19T12:25:46.472Z,100143.64
2019-05-19T12:29:26.052Z,100137.64
2019-05-19T12:33:08.784Z,100130.08
2019-05-19T12:40:41.525Z,100128.45
2019-05-19T12:44:24.030Z,100136.03
2019-05-19T12:47:59.711Z,100136.36
2019-05-19T12:51:42.661Z,100131.84
2019-05-19T12:55:18.709Z,100137.70
2019-05-19T12:58:54.075Z,100133.77
2019-05-19T13:02:29.734Z,100131.67
2019-05-19T13:06:05.253Z,100128.10
2019-05-19T13:09:48.198Z,100137.98
2019-05-19T13:13:24.220Z,100132.39
2019-05-19T13:17:06.755Z,100129.83
2019-05-19T13:20:42.263Z,100132.33
2019-05-19T13:24:25.120Z,100125.81
2019-05-19T13:28:00.913Z,100126.75
2019-05-19T13:31:43.446Z,100124.33
2019-05-19T13:35:18.994Z,100124.52
2019-05-19T13:39:01.509Z,100118.97
2019-05-19T13:42:38.869Z,100123.85
2019-05-19T13:46:21.533Z,100116.66
2019-05-19T13:49:56.948Z,100114.87
2019-05-19T13:53:39.463Z,100110.88
2019-05-19T13:57:15.535Z,100113.28
2019-05-19T14:00:58.060Z,100107.57
2019-05-19T14:04:33.707Z,100098.92
2019-05-19T14:08:16.400Z,100102.06
2019-05-19T14:11:52.124Z,100098.94
2019-05-19T14:15:34.754Z,100097.31
2019-05-19T14:19:10.393Z,100094.93
2019-05-19T14:22:53.007Z,100098.77
2019-05-19T14:26:28.505Z,100095.84
2019-05-19T14:30:11.058Z,100098.22
2019-05-19T14:33:46.894Z,100101.11
2019-05-19T14:37:29.431Z,100102.13
2019-05-19T14:41:05.094Z,100101.94
2019-05-19T14:44:47.646Z,100113.87
2019-05-19T14:48:22.732Z,100141.73
2019-05-19T14:52:05.383Z,100139.69
2019-05-19T14:55:41.055Z,100133.94
2019-05-19T14:59:23.759Z,100146.50
2019-05-19T15:02:59.126Z,100153.15
2019-05-19T15:06:34.562Z,100142.41
2019-05-19T15:10:17.379Z,100141.17
2019-05-19T15:13:53.459Z,100147.69
2019-05-19T15:17:16.565Z,100146.34
2019-05-19T15:20:39.721Z,100158.19
2019-05-19T15:24:02.883Z,100152.79
2019-05-19T15:27:26.000Z,100160.41
2019-05-19T15:30:50.170Z,100162.16
2019-05-19T15:34:13.236Z,100160.10
2019-05-19T15:37:36.653Z,100158.39
2019-05-19T15:40:59.795Z,100164.29
2019-05-19T15:44:22.978Z,100156.36
2019-05-19T15:47:46.107Z,100151.78
2019-05-19T15:51:09.169Z,100145.34
2019-05-19T15:54:32.589Z,100139.28
2019-05-19T15:57:56.782Z,100134.97
2019-05-19T16:01:19.874Z,100131.81
2019-05-19T16:04:43.102Z,100121.87
2019-05-19T16:08:06.258Z,100112.17
2019-05-19T16:11:29.353Z,100113.70
2019-05-19T16:14:52.492Z,100104.25
2019-05-19T16:18:15.701Z,100107.76
2019-05-19T16:21:38.849Z,100107.72
2019-05-19T16:25:02.119Z,100110.34
2019-05-19T16:28:30.814Z,100121.02
2019-05-19T16:31:51.274Z,100116.94
2019-05-19T16:35:15.022Z,100120.89
2019-05-19T16:38:38.312Z,100117.65
2019-05-19T16:42:01.419Z,100117.98
2019-05-19T16:45:24.929Z,100120.48
2019-05-19T16:48:48.062Z,100112.73
2019-05-19T16:52:11.331Z,100107.72
2019-05-19T16:55:34.788Z,100111.46
2019-05-19T16:58:58.027Z,100103.27
2019-05-19T17:02:21.187Z,100102.95
2019-05-19T17:05:44.269Z,100107.28
2019-05-19T17:09:07.678Z,100097.77
2019-05-19T17:12:31.283Z,100094.28
2019-05-19T17:15:54.458Z,100100.48
2019-05-19T17:19:17.769Z,100103.57
2019-05-19T17:22:40.858Z,100101.55
2019-05-19T17:26:04.006Z,100098.08
2019-05-19T17:29:27.325Z,100101.41
2019-05-19T17:32:50.442Z,100105.72
2019-05-19T17:36:13.461Z,100102.28
2019-05-19T17:39:36.557Z,100104.39
2019-05-19T17:42:59.637Z,100116.62
2019-05-19T17:46:22.748Z,100123.84
2019-05-19T17:49:46.016Z,100140.14
2019-05-19T17:53:09.200Z,100137.58
2019-05-19T17:56:32.485Z,100140.89
2019-05-19T17:59:56.268Z,100146.55
2019-05-19T18:03:19.677Z,100159.55
2019-05-19T18:06:42.973Z,100162.64
2019-05-19T18:10:06.397Z,100160.54
2019-05-19T18:13:29.695Z,100157.59
2019-05-19T18:16:53.057Z,100165.07
2019-05-19T18:20:23.889Z,100165.63
2019-05-19T18:23:41.385Z,100169.69
2019-05-19T18:27:04.656Z,100158.48
2019-05-19T18:30:28.148Z,100155.78
2019-05-19T18:33:54.507Z,100156.55
2019-05-19T18:37:18.054Z,100163.11
2019-05-19T18:40:41.738Z,100173.13
2019-05-19T18:44:05.421Z,100180.83
2019-05-19T18:47:29.040Z,100182.72
2019-05-19T18:50:54.698Z,100184.56
2019-05-19T18:54:18.330Z,100194.61
2019-05-19T18:57:41.541Z,100193.14
2019-05-19T19:01:05.367Z,100201.26
2019-05-19T19:04:29.060Z,100197.39
2019-05-19T19:07:54.456Z,100196.23
2019-05-19T19:11:23.788Z,100203.36
2019-05-19T19:14:47.496Z,100204.23
2019-05-19T19:18:13.398Z,100214.31
2019-05-19T19:21:37.050Z,100222.73
2019-05-19T19:25:00.652Z,100226.67
2019-05-19T19:28:24.805Z,100232.66
2019-05-19T19:31:48.961Z,100246.33
2019-05-19T19:35:14.981Z,100246.84
2019-05-19T19:38:38.796Z,100251.80
2019-05-19T19:42:02.403Z,100255.69
2019-05-19T19:45:25.883Z,100259.80
2019-05-19T19:48:49.613Z,100262.14
2019-05-19T19:52:14.127Z,100256.36
2019-05-19T19:55:37.632Z,100268.23
2019-05-19T19:59:02.246Z,100277.44
2019-05-19T20:02:25.896Z,100261.58
2019-05-19T20:05:50.221Z,100269.93
2019-05-19T20:09:14.534Z,100269.36
2019-05-19T20:12:37.758Z,100272.63
2019-05-19T20:16:01.009Z,100276.86
2019-05-19T20:19:27.245Z,100272.73
2019-05-19T20:22:50.575Z,100273.63
2019-05-19T20:26:13.848Z,100269.23
2019-05-19T20:29:37.080Z,100280.05
2019-05-19T20:33:00.243Z,100279.64
2019-05-19T20:36:25.267Z,100284.61
2019-05-19T20:39:48.410Z,100285.88
2019-05-19T20:43:11.528Z,100276.61
2019-05-19T20:46:34.695Z,100276.71
2019-05-19T20:49:57.769Z,100276.88
2019-05-19T20:53:20.833Z,100273.46
2019-05-19T20:56:43.959Z,100264.47
2019-05-19T21:00:07.652Z,100266.77
2019-05-19T21:03:31.436Z,100277.48
2019-05-19T21:06:55.148Z,100277.00
2019-05-19T21:10:18.705Z,100270.70
2019-05-19T21:13:45.225Z,100278.69
2019-05-19T21:17:09.028Z,100277.19
2019-05-19T21:20:33.673Z,100270.09
2019-05-19T21:23:56.845Z,100269.53
2019-05-19T21:27:20.064Z,100271.13
2019-05-19T21:30:43.237Z,100275.41
2019-05-19T21:34:06.351Z,100276.42
2019-05-19T21:37:29.567Z,100278.66
2019-05-19T21:40:52.893Z,100275.25
2019-05-19T21:44:16.020Z,100272.22
2019-05-19T21:47:39.173Z,100271.45
2019-05-19T21:51:02.365Z,100271.52
2019-05-19T21:54:25.831Z,100268.34
2019-05-19T21:57:49.041Z,100273.28
2019-05-19T22:01:22.756Z,100271.47
2019-05-19T22:04:37.589Z,100270.07
2019-05-19T22:08:04.073Z,100276.02
2019-05-19T22:11:27.518Z,100282.23
2019-05-19T22:14:50.693Z,100282.78
2019-05-19T22:18:13.837Z,100280.42
2019-05-19T22:21:37.562Z,100279.36
2019-05-19T22:25:00.728Z,100279.53
2019-05-19T22:28:24.012Z,100279.65
2019-05-19T22:31:47.373Z,100278.50
2019-05-19T22:35:12.645Z,100277.55
2019-05-19T22:38:35.992Z,100278.50
2019-05-19T22:41:59.175Z,100276.80
2019-05-19T22:45:22.385Z,100276.67
2019-05-19T22:48:46.541Z,100271.98
2019-05-19T22:52:09.729Z,100269.42
2019-05-19T22:55:33.097Z,100279.14
2019-05-19T22:58:56.272Z,100266.66
2019-05-19T23:02:19.526Z,100267.53
2019-05-19T23:05:42.586Z,100270.80
2019-05-19T23:09:06.366Z,100259.66
2019-05-19T23:12:29.423Z,100262.02
2019-05-19T23:15:52.517Z,100264.17
2019-05-19T23:19:15.612Z,100265.09
2019-05-19T23:22:38.801Z,100264.48
2019-05-19T23:26:01.961Z,100262.11
2019-05-19T23:29:26.266Z,100262.94
2019-05-19T23:32:49.428Z,100255.80
2019-05-19T23:36:12.545Z,100249.07
2019-05-19T23:39:35.779Z,100253.13
2019-05-19T23:42:58.877Z,100256.20
2019-05-19T23:46:21.959Z,100257.55
2019-05-19T23:49:45.066Z,100258.30
2019-05-19T23:53:08.245Z,100252.17
2019-05-19T23:56:31.411Z,100268.66
2019-05-19T23:59:54.525Z,100268.89
